sensor_id;sensor_type;location;lat;lon;timestamp;P1;durP1;ratioP1;P2;durP2;ratioP2
3070;SDS011;1546;47.208;9.038;2022-12-18T00:02:04;14.35;;;5.20;;
3070;SDS011;1546;47.208;9.038;2022-12-18T00:04:32;9.82;;;4.97;;
3070;SDS011;1546;47.208;9.038;2022-12-18T00:06:59;15.88;;;6.70;;
3070;SDS011;1546;47.208;9.038;2022-12-18T00:09:25;16.30;;;7.22;;
3070;SDS011;1546;47.208;9.038;2022-12-18T00:11:52;16.60;;;5.53;;
3070;SDS011;1546;47.208;9.038;2022-12-18T00:14:19;18.98;;;8.23;;
3070;SDS011;1546;47.208;9.038;2022-12-18T00:16:46;16.80;;;6.90;;
3070;SDS011;1546;47.208;9.038;2022-12-18T00:19:13;15.30;;;7.28;;
3070;SDS011;1546;47.208;9.038;2022-12-18T00:21:42;16.23;;;6.85;;
3070;SDS011;1546;47.208;9.038;2022-12-18T00:24:09;13.80;;;7.45;;
3070;SDS011;1546;47.208;9.038;2022-12-18T00:26:37;13.20;;;6.18;;
3070;SDS011;1546;47.208;9.038;2022-12-18T00:29:05;10.25;;;5.38;;
3070;SDS011;1546;47.208;9.038;2022-12-18T00:31:34;10.20;;;4.18;;
3070;SDS011;1546;47.208;9.038;2022-12-18T00:34:01;11.57;;;4.95;;
3070;SDS011;1546;47.208;9.038;2022-12-18T00:36:30;13.98;;;6.75;;
3070;SDS011;1546;47.208;9.038;2022-12-18T00:39:00;8.63;;;4.40;;
3070;SDS011;1546;47.208;9.038;2022-12-18T00:41:27;9.75;;;5.15;;
3070;SDS011;1546;47.208;9.038;2022-12-18T00:44:12;9.25;;;3.95;;
3070;SDS011;1546;47.208;9.038;2022-12-18T00:46:41;13.75;;;5.35;;
3070;SDS011;1546;47.208;9.038;2022-12-18T00:49:08;10.52;;;4.57;;
3070;SDS011;1546;47.208;9.038;2022-12-18T00:51:37;13.13;;;4.82;;
3070;SDS011;1546;47.208;9.038;2022-12-18T00:54:05;12.25;;;4.85;;
3070;SDS011;1546;47.208;9.038;2022-12-18T00:56:32;10.95;;;3.85;;
3070;SDS011;1546;47.208;9.038;2022-12-18T00:59:01;12.93;;;5.13;;
3070;SDS011;1546;47.208;9.038;2022-12-18T01:01:27;10.98;;;5.03;;
3070;SDS011;1546;47.208;9.038;2022-12-18T01:03:57;8.18;;;3.58;;
3070;SDS011;1546;47.208;9.038;2022-12-18T01:06:25;7.85;;;3.63;;
3070;SDS011;1546;47.208;9.038;2022-12-18T01:08:51;10.55;;;4.20;;
3070;SDS011;1546;47.208;9.038;2022-12-18T01:11:20;12.38;;;5.13;;
3070;SDS011;1546;47.208;9.038;2022-12-18T01:13:48;11.55;;;4.85;;
3070;SDS011;1546;47.208;9.038;2022-12-18T01:16:17;13.10;;;5.90;;
3070;SDS011;1546;47.208;9.038;2022-12-18T01:18:44;17.67;;;7.03;;
3070;SDS011;1546;47.208;9.038;2022-12-18T01:21:11;12.75;;;6.95;;
3070;SDS011;1546;47.208;9.038;2022-12-18T01:23:40;12.57;;;5.70;;
3070;SDS011;1546;47.208;9.038;2022-12-18T01:26:09;9.98;;;5.00;;
3070;SDS011;1546;47.208;9.038;2022-12-18T01:28:39;8.60;;;4.70;;
3070;SDS011;1546;47.208;9.038;2022-12-18T01:31:12;14.98;;;5.18;;
3070;SDS011;1546;47.208;9.038;2022-12-18T01:33:41;12.00;;;4.45;;
3070;SDS011;1546;47.208;9.038;2022-12-18T01:36:13;10.68;;;2.92;;
3070;SDS011;1546;47.208;9.038;2022-12-18T01:38:41;8.20;;;4.40;;
3070;SDS011;1546;47.208;9.038;2022-12-18T01:41:08;8.55;;;2.17;;
3070;SDS011;1546;47.208;9.038;2022-12-18T01:43:43;10.57;;;4.03;;
3070;SDS011;1546;47.208;9.038;2022-12-18T01:46:12;12.13;;;4.13;;
3070;SDS011;1546;47.208;9.038;2022-12-18T01:48:40;11.25;;;6.55;;
3070;SDS011;1546;47.208;9.038;2022-12-18T01:51:09;10.05;;;4.18;;
3070;SDS011;1546;47.208;9.038;2022-12-18T01:53:37;12.68;;;4.70;;
3070;SDS011;1546;47.208;9.038;2022-12-18T01:56:06;14.82;;;6.00;;
3070;SDS011;1546;47.208;9.038;2022-12-18T01:58:36;10.68;;;3.22;;
3070;SDS011;1546;47.208;9.038;2022-12-18T02:01:08;10.90;;;4.03;;
3070;SDS011;1546;47.208;9.038;2022-12-18T02:03:35;10.15;;;3.50;;
3070;SDS011;1546;47.208;9.038;2022-12-18T02:06:05;7.80;;;3.00;;
3070;SDS011;1546;47.208;9.038;2022-12-18T02:08:39;10.35;;;5.47;;
3070;SDS011;1546;47.208;9.038;2022-12-18T02:11:13;13.73;;;6.78;;
3070;SDS011;1546;47.208;9.038;2022-12-18T02:13:46;13.82;;;6.88;;
3070;SDS011;1546;47.208;9.038;2022-12-18T02:16:21;9.02;;;3.72;;
3070;SDS011;1546;47.208;9.038;2022-12-18T02:18:55;9.15;;;3.00;;
3070;SDS011;1546;47.208;9.038;2022-12-18T02:21:28;7.93;;;3.53;;
3070;SDS011;1546;47.208;9.038;2022-12-18T02:24:05;12.25;;;5.53;;
3070;SDS011;1546;47.208;9.038;2022-12-18T02:26:45;22.42;;;10.63;;
3070;SDS011;1546;47.208;9.038;2022-12-18T02:29:16;16.27;;;9.73;;
3070;SDS011;1546;47.208;9.038;2022-12-18T02:31:48;9.13;;;4.20;;
3070;SDS011;1546;47.208;9.038;2022-12-18T02:34:18;10.77;;;4.20;;
3070;SDS011;1546;47.208;9.038;2022-12-18T02:36:48;10.13;;;3.15;;
3070;SDS011;1546;47.208;9.038;2022-12-18T02:39:17;7.18;;;3.95;;
3070;SDS011;1546;47.208;9.038;2022-12-18T02:41:48;5.68;;;2.50;;
3070;SDS011;1546;47.208;9.038;2022-12-18T02:44:15;7.95;;;3.72;;
3070;SDS011;1546;47.208;9.038;2022-12-18T02:46:42;10.20;;;4.18;;
3070;SDS011;1546;47.208;9.038;2022-12-18T02:49:13;8.73;;;3.38;;
3070;SDS011;1546;47.208;9.038;2022-12-18T02:51:50;8.52;;;4.03;;
3070;SDS011;1546;47.208;9.038;2022-12-18T02:54:23;8.38;;;3.70;;
3070;SDS011;1546;47.208;9.038;2022-12-18T02:57:05;7.43;;;3.25;;
3070;SDS011;1546;47.208;9.038;2022-12-18T02:59:40;7.90;;;3.33;;
3070;SDS011;1546;47.208;9.038;2022-12-18T03:02:16;7.13;;;3.25;;
3070;SDS011;1546;47.208;9.038;2022-12-18T03:04:48;10.27;;;6.15;;
3070;SDS011;1546;47.208;9.038;2022-12-18T03:07:21;9.93;;;4.07;;
3070;SDS011;1546;47.208;9.038;2022-12-18T03:09:54;10.82;;;4.30;;
3070;SDS011;1546;47.208;9.038;2022-12-18T03:12:24;8.90;;;3.20;;
3070;SDS011;1546;47.208;9.038;2022-12-18T03:14:58;12.80;;;4.30;;
3070;SDS011;1546;47.208;9.038;2022-12-18T03:17:30;7.63;;;4.80;;
3070;SDS011;1546;47.208;9.038;2022-12-18T03:19:58;6.45;;;2.60;;
3070;SDS011;1546;47.208;9.038;2022-12-18T03:22:29;11.98;;;4.88;;
3070;SDS011;1546;47.208;9.038;2022-12-18T03:24:58;9.65;;;3.58;;
3070;SDS011;1546;47.208;9.038;2022-12-18T03:27:30;8.13;;;3.25;;
3070;SDS011;1546;47.208;9.038;2022-12-18T03:30:00;9.05;;;4.70;;
3070;SDS011;1546;47.208;9.038;2022-12-18T03:32:33;10.05;;;3.92;;
3070;SDS011;1546;47.208;9.038;2022-12-18T03:35:05;8.13;;;4.15;;
3070;SDS011;1546;47.208;9.038;2022-12-18T03:37:34;7.88;;;4.35;;
3070;SDS011;1546;47.208;9.038;2022-12-18T03:40:01;8.57;;;3.67;;
3070;SDS011;1546;47.208;9.038;2022-12-18T03:42:31;9.57;;;5.05;;
3070;SDS011;1546;47.208;9.038;2022-12-18T03:45:06;6.90;;;3.03;;
3070;SDS011;1546;47.208;9.038;2022-12-18T03:47:38;9.73;;;3.40;;
3070;SDS011;1546;47.208;9.038;2022-12-18T03:50:11;10.40;;;3.22;;
3070;SDS011;1546;47.208;9.038;2022-12-18T03:52:42;10.40;;;3.42;;
3070;SDS011;1546;47.208;9.038;2022-12-18T03:55:15;11.32;;;5.60;;
3070;SDS011;1546;47.208;9.038;2022-12-18T03:57:45;10.55;;;4.07;;
3070;SDS011;1546;47.208;9.038;2022-12-18T04:00:14;12.70;;;5.68;;
3070;SDS011;1546;47.208;9.038;2022-12-18T04:02:44;13.18;;;5.72;;
3070;SDS011;1546;47.208;9.038;2022-12-18T04:05:13;14.60;;;7.88;;
3070;SDS011;1546;47.208;9.038;2022-12-18T04:07:41;9.95;;;3.35;;
3070;SDS011;1546;47.208;9.038;2022-12-18T04:10:09;8.45;;;4.43;;
3070;SDS011;1546;47.208;9.038;2022-12-18T04:12:38;10.68;;;6.63;;
3070;SDS011;1546;47.208;9.038;2022-12-18T04:15:07;8.30;;;4.40;;
3070;SDS011;1546;47.208;9.038;2022-12-18T04:17:35;9.77;;;3.13;;
3070;SDS011;1546;47.208;9.038;2022-12-18T04:20:02;9.20;;;3.58;;
3070;SDS011;1546;47.208;9.038;2022-12-18T04:22:30;9.13;;;3.15;;
3070;SDS011;1546;47.208;9.038;2022-12-18T04:24:56;5.97;;;2.47;;
3070;SDS011;1546;47.208;9.038;2022-12-18T04:27:23;7.90;;;3.20;;
3070;SDS011;1546;47.208;9.038;2022-12-18T04:29:50;8.98;;;2.90;;
3070;SDS011;1546;47.208;9.038;2022-12-18T04:32:18;7.78;;;2.60;;
3070;SDS011;1546;47.208;9.038;2022-12-18T04:34:45;6.28;;;2.40;;
3070;SDS011;1546;47.208;9.038;2022-12-18T04:37:12;6.90;;;2.90;;
3070;SDS011;1546;47.208;9.038;2022-12-18T04:39:39;9.60;;;4.13;;
3070;SDS011;1546;47.208;9.038;2022-12-18T04:42:05;11.65;;;4.05;;
3070;SDS011;1546;47.208;9.038;2022-12-18T04:44:32;8.15;;;3.65;;
3070;SDS011;1546;47.208;9.038;2022-12-18T04:46:59;9.63;;;3.55;;
3070;SDS011;1546;47.208;9.038;2022-12-18T04:49:27;9.57;;;5.30;;
3070;SDS011;1546;47.208;9.038;2022-12-18T04:51:54;14.82;;;4.70;;
3070;SDS011;1546;47.208;9.038;2022-12-18T04:54:21;12.43;;;6.10;;
3070;SDS011;1546;47.208;9.038;2022-12-18T04:56:48;11.75;;;6.72;;
3070;SDS011;1546;47.208;9.038;2022-12-18T04:59:14;11.88;;;5.85;;
3070;SDS011;1546;47.208;9.038;2022-12-18T05:01:41;12.50;;;5.32;;
3070;SDS011;1546;47.208;9.038;2022-12-18T05:04:08;13.55;;;6.72;;
3070;SDS011;1546;47.208;9.038;2022-12-18T05:06:36;15.00;;;6.25;;
3070;SDS011;1546;47.208;9.038;2022-12-18T05:09:03;15.13;;;7.97;;
3070;SDS011;1546;47.208;9.038;2022-12-18T05:11:30;11.85;;;6.07;;
3070;SDS011;1546;47.208;9.038;2022-12-18T05:13:57;11.45;;;5.65;;
3070;SDS011;1546;47.208;9.038;2022-12-18T05:16:24;12.85;;;6.22;;
3070;SDS011;1546;47.208;9.038;2022-12-18T05:18:50;13.77;;;7.03;;
3070;SDS011;1546;47.208;9.038;2022-12-18T05:21:17;15.82;;;7.70;;
3070;SDS011;1546;47.208;9.038;2022-12-18T05:23:45;12.43;;;6.70;;
3070;SDS011;1546;47.208;9.038;2022-12-18T05:26:14;18.02;;;8.85;;
3070;SDS011;1546;47.208;9.038;2022-12-18T05:28:42;12.88;;;5.97;;
3070;SDS011;1546;47.208;9.038;2022-12-18T05:31:09;13.05;;;5.35;;
3070;SDS011;1546;47.208;9.038;2022-12-18T05:33:36;14.38;;;7.20;;
3070;SDS011;1546;47.208;9.038;2022-12-18T05:36:04;14.13;;;6.43;;
3070;SDS011;1546;47.208;9.038;2022-12-18T05:38:32;13.63;;;6.60;;
3070;SDS011;1546;47.208;9.038;2022-12-18T05:41:02;16.40;;;6.10;;
3070;SDS011;1546;47.208;9.038;2022-12-18T05:43:30;13.90;;;6.55;;
3070;SDS011;1546;47.208;9.038;2022-12-18T05:45:57;16.55;;;6.60;;
3070;SDS011;1546;47.208;9.038;2022-12-18T05:48:24;13.25;;;4.55;;
3070;SDS011;1546;47.208;9.038;2022-12-18T05:50:51;13.02;;;5.35;;
3070;SDS011;1546;47.208;9.038;2022-12-18T05:53:18;12.52;;;5.35;;
3070;SDS011;1546;47.208;9.038;2022-12-18T05:55:46;12.85;;;5.72;;
3070;SDS011;1546;47.208;9.038;2022-12-18T05:58:15;13.30;;;7.38;;
3070;SDS011;1546;47.208;9.038;2022-12-18T06:00:43;18.60;;;7.22;;
3070;SDS011;1546;47.208;9.038;2022-12-18T06:03:11;17.60;;;6.65;;
3070;SDS011;1546;47.208;9.038;2022-12-18T06:05:39;11.93;;;6.03;;
3070;SDS011;1546;47.208;9.038;2022-12-18T06:08:07;9.43;;;4.63;;
3070;SDS011;1546;47.208;9.038;2022-12-18T06:10:35;17.25;;;8.07;;
3070;SDS011;1546;47.208;9.038;2022-12-18T06:13:03;15.63;;;7.30;;
3070;SDS011;1546;47.208;9.038;2022-12-18T06:15:31;17.67;;;6.25;;
3070;SDS011;1546;47.208;9.038;2022-12-18T06:18:00;18.42;;;9.45;;
3070;SDS011;1546;47.208;9.038;2022-12-18T06:20:27;13.00;;;6.85;;
3070;SDS011;1546;47.208;9.038;2022-12-18T06:22:56;37.78;;;10.75;;
3070;SDS011;1546;47.208;9.038;2022-12-18T06:25:23;30.60;;;8.13;;
3070;SDS011;1546;47.208;9.038;2022-12-18T06:27:50;18.30;;;7.45;;
3070;SDS011;1546;47.208;9.038;2022-12-18T06:30:16;15.30;;;8.88;;
3070;SDS011;1546;47.208;9.038;2022-12-18T06:32:45;14.27;;;6.38;;
3070;SDS011;1546;47.208;9.038;2022-12-18T06:35:11;14.88;;;7.38;;
3070;SDS011;1546;47.208;9.038;2022-12-18T06:37:38;9.98;;;4.00;;
3070;SDS011;1546;47.208;9.038;2022-12-18T06:40:06;11.00;;;5.90;;
3070;SDS011;1546;47.208;9.038;2022-12-18T06:42:34;8.80;;;3.40;;
3070;SDS011;1546;47.208;9.038;2022-12-18T06:45:00;4.95;;;2.33;;
3070;SDS011;1546;47.208;9.038;2022-12-18T06:47:27;5.32;;;2.67;;
3070;SDS011;1546;47.208;9.038;2022-12-18T06:49:55;8.38;;;2.65;;
3070;SDS011;1546;47.208;9.038;2022-12-18T06:52:22;6.10;;;3.45;;
3070;SDS011;1546;47.208;9.038;2022-12-18T06:54:49;6.45;;;2.75;;
3070;SDS011;1546;47.208;9.038;2022-12-18T06:57:16;5.57;;;2.25;;
3070;SDS011;1546;47.208;9.038;2022-12-18T06:59:43;7.30;;;2.50;;
3070;SDS011;1546;47.208;9.038;2022-12-18T07:02:10;13.48;;;3.47;;
3070;SDS011;1546;47.208;9.038;2022-12-18T07:04:38;9.70;;;4.10;;
3070;SDS011;1546;47.208;9.038;2022-12-18T07:07:06;17.48;;;7.88;;
3070;SDS011;1546;47.208;9.038;2022-12-18T07:09:33;10.60;;;5.80;;
3070;SDS011;1546;47.208;9.038;2022-12-18T07:12:00;8.65;;;4.88;;
3070;SDS011;1546;47.208;9.038;2022-12-18T07:14:26;7.07;;;4.40;;
3070;SDS011;1546;47.208;9.038;2022-12-18T07:16:53;9.90;;;4.85;;
3070;SDS011;1546;47.208;9.038;2022-12-18T07:19:20;6.95;;;4.20;;
3070;SDS011;1546;47.208;9.038;2022-12-18T07:21:50;8.40;;;3.40;;
3070;SDS011;1546;47.208;9.038;2022-12-18T07:24:18;8.85;;;3.65;;
3070;SDS011;1546;47.208;9.038;2022-12-18T07:26:45;5.90;;;3.17;;
3070;SDS011;1546;47.208;9.038;2022-12-18T07:29:13;10.13;;;3.80;;
3070;SDS011;1546;47.208;9.038;2022-12-18T07:31:39;9.30;;;3.95;;
3070;SDS011;1546;47.208;9.038;2022-12-18T07:34:09;7.72;;;2.88;;
3070;SDS011;1546;47.208;9.038;2022-12-18T07:36:36;6.00;;;2.70;;
3070;SDS011;1546;47.208;9.038;2022-12-18T07:39:03;10.93;;;4.90;;
3070;SDS011;1546;47.208;9.038;2022-12-18T07:41:31;7.95;;;2.83;;
3070;SDS011;1546;47.208;9.038;2022-12-18T07:43:58;10.38;;;4.05;;
3070;SDS011;1546;47.208;9.038;2022-12-18T07:46:25;8.50;;;3.47;;
3070;SDS011;1546;47.208;9.038;2022-12-18T07:48:52;8.02;;;3.30;;
3070;SDS011;1546;47.208;9.038;2022-12-18T07:51:19;14.93;;;4.28;;
3070;SDS011;1546;47.208;9.038;2022-12-18T07:53:46;8.80;;;4.70;;
3070;SDS011;1546;47.208;9.038;2022-12-18T07:56:13;10.85;;;2.90;;
3070;SDS011;1546;47.208;9.038;2022-12-18T07:58:41;6.68;;;2.75;;
3070;SDS011;1546;47.208;9.038;2022-12-18T08:01:10;8.15;;;4.90;;
3070;SDS011;1546;47.208;9.038;2022-12-18T08:03:37;13.55;;;3.65;;
3070;SDS011;1546;47.208;9.038;2022-12-18T08:06:06;9.73;;;5.30;;
3070;SDS011;1546;47.208;9.038;2022-12-18T08:08:34;14.23;;;6.18;;
3070;SDS011;1546;47.208;9.038;2022-12-18T08:11:02;9.55;;;5.90;;
3070;SDS011;1546;47.208;9.038;2022-12-18T08:13:29;11.05;;;5.45;;
3070;SDS011;1546;47.208;9.038;2022-12-18T08:15:58;13.10;;;5.25;;
3070;SDS011;1546;47.208;9.038;2022-12-18T08:18:28;8.93;;;4.15;;
3070;SDS011;1546;47.208;9.038;2022-12-18T08:21:06;10.10;;;3.92;;
3070;SDS011;1546;47.208;9.038;2022-12-18T08:23:34;11.00;;;5.63;;
3070;SDS011;1546;47.208;9.038;2022-12-18T08:26:01;8.45;;;3.63;;
3070;SDS011;1546;47.208;9.038;2022-12-18T08:28:28;5.68;;;3.40;;
3070;SDS011;1546;47.208;9.038;2022-12-18T08:30:54;11.05;;;4.30;;
3070;SDS011;1546;47.208;9.038;2022-12-18T08:33:23;9.25;;;4.28;;
3070;SDS011;1546;47.208;9.038;2022-12-18T08:35:50;9.95;;;4.82;;
3070;SDS011;1546;47.208;9.038;2022-12-18T08:38:17;12.25;;;4.88;;
3070;SDS011;1546;47.208;9.038;2022-12-18T08:40:43;15.00;;;7.30;;
3070;SDS011;1546;47.208;9.038;2022-12-18T08:43:11;15.80;;;7.80;;
3070;SDS011;1546;47.208;9.038;2022-12-18T08:45:55;12.68;;;6.07;;
3070;SDS011;1546;47.208;9.038;2022-12-18T08:48:24;16.55;;;8.48;;
3070;SDS011;1546;47.208;9.038;2022-12-18T08:50:54;13.77;;;8.27;;
3070;SDS011;1546;47.208;9.038;2022-12-18T08:53:21;15.80;;;7.10;;
3070;SDS011;1546;47.208;9.038;2022-12-18T08:55:51;13.73;;;7.85;;
3070;SDS011;1546;47.208;9.038;2022-12-18T08:58:18;14.73;;;7.35;;
3070;SDS011;1546;47.208;9.038;2022-12-18T09:00:45;12.57;;;6.95;;
3070;SDS011;1546;47.208;9.038;2022-12-18T09:03:12;14.30;;;6.60;;
3070;SDS011;1546;47.208;9.038;2022-12-18T09:05:41;14.23;;;6.38;;
3070;SDS011;1546;47.208;9.038;2022-12-18T09:08:09;13.13;;;6.25;;
3070;SDS011;1546;47.208;9.038;2022-12-18T09:10:41;13.02;;;7.43;;
3070;SDS011;1546;47.208;9.038;2022-12-18T09:13:09;14.90;;;7.20;;
3070;SDS011;1546;47.208;9.038;2022-12-18T09:15:39;16.63;;;9.15;;
3070;SDS011;1546;47.208;9.038;2022-12-18T09:18:06;18.65;;;9.63;;
3070;SDS011;1546;47.208;9.038;2022-12-18T09:20:34;14.23;;;6.47;;
3070;SDS011;1546;47.208;9.038;2022-12-18T09:23:03;12.82;;;6.03;;
3070;SDS011;1546;47.208;9.038;2022-12-18T09:25:30;8.90;;;4.47;;
3070;SDS011;1546;47.208;9.038;2022-12-18T09:27:58;12.75;;;5.18;;
3070;SDS011;1546;47.208;9.038;2022-12-18T09:30:25;10.73;;;5.38;;
3070;SDS011;1546;47.208;9.038;2022-12-18T09:32:52;11.27;;;6.30;;
3070;SDS011;1546;47.208;9.038;2022-12-18T09:35:21;15.50;;;6.78;;
3070;SDS011;1546;47.208;9.038;2022-12-18T09:37:48;12.50;;;7.15;;
3070;SDS011;1546;47.208;9.038;2022-12-18T09:40:17;15.52;;;5.43;;
3070;SDS011;1546;47.208;9.038;2022-12-18T09:42:48;17.50;;;6.80;;
3070;SDS011;1546;47.208;9.038;2022-12-18T09:45:21;13.05;;;5.95;;
3070;SDS011;1546;47.208;9.038;2022-12-18T09:47:49;15.20;;;7.78;;
3070;SDS011;1546;47.208;9.038;2022-12-18T09:50:22;16.42;;;7.45;;
3070;SDS011;1546;47.208;9.038;2022-12-18T09:52:53;12.73;;;5.93;;
3070;SDS011;1546;47.208;9.038;2022-12-18T09:55:24;14.23;;;7.28;;
3070;SDS011;1546;47.208;9.038;2022-12-18T09:57:56;14.07;;;7.07;;
3070;SDS011;1546;47.208;9.038;2022-12-18T10:00:31;12.07;;;7.43;;
3070;SDS011;1546;47.208;9.038;2022-12-18T10:02:59;19.00;;;10.05;;
3070;SDS011;1546;47.208;9.038;2022-12-18T10:05:29;19.73;;;10.02;;
3070;SDS011;1546;47.208;9.038;2022-12-18T10:08:04;23.45;;;12.30;;
3070;SDS011;1546;47.208;9.038;2022-12-18T10:10:39;16.98;;;9.15;;
3070;SDS011;1546;47.208;9.038;2022-12-18T10:13:13;16.80;;;8.52;;
3070;SDS011;1546;47.208;9.038;2022-12-18T10:15:49;19.15;;;9.35;;
3070;SDS011;1546;47.208;9.038;2022-12-18T10:18:28;21.58;;;9.63;;
3070;SDS011;1546;47.208;9.038;2022-12-18T10:21:06;21.90;;;10.43;;
3070;SDS011;1546;47.208;9.038;2022-12-18T10:23:38;19.80;;;9.43;;
3070;SDS011;1546;47.208;9.038;2022-12-18T10:26:09;21.13;;;8.95;;
3070;SDS011;1546;47.208;9.038;2022-12-18T10:28:38;17.88;;;10.18;;
3070;SDS011;1546;47.208;9.038;2022-12-18T10:31:06;23.85;;;11.57;;
3070;SDS011;1546;47.208;9.038;2022-12-18T10:33:38;22.30;;;11.55;;
3070;SDS011;1546;47.208;9.038;2022-12-18T10:36:06;18.77;;;9.27;;
3070;SDS011;1546;47.208;9.038;2022-12-18T10:38:33;17.45;;;9.52;;
3070;SDS011;1546;47.208;9.038;2022-12-18T10:41:01;18.55;;;8.75;;
3070;SDS011;1546;47.208;9.038;2022-12-18T10:43:31;14.55;;;8.25;;
3070;SDS011;1546;47.208;9.038;2022-12-18T10:46:04;19.77;;;9.45;;
3070;SDS011;1546;47.208;9.038;2022-12-18T10:48:41;19.67;;;9.77;;
3070;SDS011;1546;47.208;9.038;2022-12-18T10:51:19;18.50;;;9.43;;
3070;SDS011;1546;47.208;9.038;2022-12-18T10:53:51;19.35;;;9.48;;
3070;SDS011;1546;47.208;9.038;2022-12-18T10:56:21;18.15;;;9.20;;
3070;SDS011;1546;47.208;9.038;2022-12-18T10:58:56;19.17;;;9.38;;
3070;SDS011;1546;47.208;9.038;2022-12-18T11:01:25;20.60;;;10.82;;
3070;SDS011;1546;47.208;9.038;2022-12-18T11:03:59;18.85;;;8.95;;
3070;SDS011;1546;47.208;9.038;2022-12-18T11:06:28;15.60;;;8.00;;
3070;SDS011;1546;47.208;9.038;2022-12-18T11:08:59;18.15;;;10.13;;
3070;SDS011;1546;47.208;9.038;2022-12-18T11:11:27;17.88;;;8.98;;
3070;SDS011;1546;47.208;9.038;2022-12-18T11:13:59;26.05;;;10.73;;
3070;SDS011;1546;47.208;9.038;2022-12-18T11:16:29;19.20;;;10.32;;
3070;SDS011;1546;47.208;9.038;2022-12-18T11:19:09;19.35;;;9.93;;
3070;SDS011;1546;47.208;9.038;2022-12-18T11:21:45;21.35;;;11.35;;
3070;SDS011;1546;47.208;9.038;2022-12-18T11:24:15;22.90;;;12.20;;
3070;SDS011;1546;47.208;9.038;2022-12-18T11:26:47;22.33;;;10.77;;
3070;SDS011;1546;47.208;9.038;2022-12-18T11:29:17;17.95;;;9.43;;
3070;SDS011;1546;47.208;9.038;2022-12-18T11:31:49;20.45;;;10.75;;
3070;SDS011;1546;47.208;9.038;2022-12-18T11:34:16;20.70;;;10.45;;
3070;SDS011;1546;47.208;9.038;2022-12-18T11:36:49;17.63;;;8.98;;
3070;SDS011;1546;47.208;9.038;2022-12-18T11:39:17;18.48;;;9.35;;
3070;SDS011;1546;47.208;9.038;2022-12-18T11:41:47;20.42;;;10.23;;
3070;SDS011;1546;47.208;9.038;2022-12-18T11:44:40;15.73;;;8.00;;
3070;SDS011;1546;47.208;9.038;2022-12-18T11:47:13;21.95;;;10.50;;
3070;SDS011;1546;47.208;9.038;2022-12-18T11:49:47;19.77;;;9.60;;
3070;SDS011;1546;47.208;9.038;2022-12-18T11:52:17;16.52;;;8.85;;
3070;SDS011;1546;47.208;9.038;2022-12-18T11:54:50;19.02;;;10.48;;
3070;SDS011;1546;47.208;9.038;2022-12-18T11:57:22;18.48;;;9.07;;
3070;SDS011;1546;47.208;9.038;2022-12-18T12:00:02;15.52;;;7.68;;
3070;SDS011;1546;47.208;9.038;2022-12-18T12:05:38;16.25;;;8.43;;
3070;SDS011;1546;47.208;9.038;2022-12-18T12:08:15;18.52;;;9.95;;
3070;SDS011;1546;47.208;9.038;2022-12-18T12:10:51;18.70;;;9.65;;
3070;SDS011;1546;47.208;9.038;2022-12-18T12:13:24;24.75;;;11.63;;
3070;SDS011;1546;47.208;9.038;2022-12-18T12:16:03;20.00;;;11.50;;
3070;SDS011;1546;47.208;9.038;2022-12-18T12:18:40;20.50;;;10.30;;
3070;SDS011;1546;47.208;9.038;2022-12-18T12:21:20;17.30;;;10.55;;
3070;SDS011;1546;47.208;9.038;2022-12-18T12:23:52;16.08;;;9.48;;
3070;SDS011;1546;47.208;9.038;2022-12-18T12:26:29;18.35;;;9.43;;
3070;SDS011;1546;47.208;9.038;2022-12-18T12:29:06;19.20;;;10.38;;
3070;SDS011;1546;47.208;9.038;2022-12-18T12:31:52;17.15;;;9.40;;
3070;SDS011;1546;47.208;9.038;2022-12-18T12:34:25;20.00;;;9.95;;
3070;SDS011;1546;47.208;9.038;2022-12-18T12:37:01;15.80;;;9.80;;
3070;SDS011;1546;47.208;9.038;2022-12-18T12:39:33;21.80;;;12.35;;
3070;SDS011;1546;47.208;9.038;2022-12-18T12:42:02;19.75;;;9.88;;
3070;SDS011;1546;47.208;9.038;2022-12-18T12:44:50;19.17;;;8.35;;
3070;SDS011;1546;47.208;9.038;2022-12-18T12:47:23;17.50;;;9.55;;
3070;SDS011;1546;47.208;9.038;2022-12-18T12:49:53;15.50;;;8.65;;
3070;SDS011;1546;47.208;9.038;2022-12-18T12:52:24;16.70;;;9.45;;
3070;SDS011;1546;47.208;9.038;2022-12-18T12:54:56;18.65;;;9.13;;
3070;SDS011;1546;47.208;9.038;2022-12-18T12:57:33;17.30;;;9.40;;
3070;SDS011;1546;47.208;9.038;2022-12-18T13:00:04;21.17;;;8.85;;
3070;SDS011;1546;47.208;9.038;2022-12-18T13:02:37;19.63;;;9.65;;
3070;SDS011;1546;47.208;9.038;2022-12-18T13:05:12;17.20;;;8.18;;
3070;SDS011;1546;47.208;9.038;2022-12-18T13:07:49;16.45;;;8.15;;
3070;SDS011;1546;47.208;9.038;2022-12-18T13:10:23;15.10;;;8.35;;
3070;SDS011;1546;47.208;9.038;2022-12-18T13:12:53;17.95;;;8.90;;
3070;SDS011;1546;47.208;9.038;2022-12-18T13:15:21;14.32;;;7.35;;
3070;SDS011;1546;47.208;9.038;2022-12-18T13:17:59;21.67;;;10.43;;
3070;SDS011;1546;47.208;9.038;2022-12-18T13:20:32;17.83;;;9.10;;
3070;SDS011;1546;47.208;9.038;2022-12-18T13:23:01;19.02;;;8.85;;
3070;SDS011;1546;47.208;9.038;2022-12-18T13:25:45;23.33;;;9.60;;
3070;SDS011;1546;47.208;9.038;2022-12-18T13:28:12;19.05;;;8.73;;
3070;SDS011;1546;47.208;9.038;2022-12-18T13:30:50;15.73;;;8.88;;
3070;SDS011;1546;47.208;9.038;2022-12-18T13:36:11;18.25;;;10.05;;
3070;SDS011;1546;47.208;9.038;2022-12-18T13:38:41;22.50;;;9.70;;
3070;SDS011;1546;47.208;9.038;2022-12-18T13:41:21;20.00;;;9.50;;
3070;SDS011;1546;47.208;9.038;2022-12-18T13:43:50;19.58;;;9.05;;
3070;SDS011;1546;47.208;9.038;2022-12-18T13:46:19;21.95;;;10.88;;
3070;SDS011;1546;47.208;9.038;2022-12-18T13:48:50;19.52;;;9.23;;
3070;SDS011;1546;47.208;9.038;2022-12-18T13:51:21;19.35;;;9.55;;
3070;SDS011;1546;47.208;9.038;2022-12-18T13:53:49;19.98;;;9.13;;
3070;SDS011;1546;47.208;9.038;2022-12-18T13:56:20;19.15;;;8.15;;
3070;SDS011;1546;47.208;9.038;2022-12-18T14:01:43;18.35;;;8.90;;
3070;SDS011;1546;47.208;9.038;2022-12-18T14:04:23;24.55;;;11.60;;
3070;SDS011;1546;47.208;9.038;2022-12-18T14:06:52;20.55;;;11.05;;
3070;SDS011;1546;47.208;9.038;2022-12-18T14:09:24;20.50;;;10.00;;
3070;SDS011;1546;47.208;9.038;2022-12-18T14:11:53;20.00;;;10.52;;
3070;SDS011;1546;47.208;9.038;2022-12-18T14:14:43;17.15;;;8.65;;
3070;SDS011;1546;47.208;9.038;2022-12-18T14:17:12;21.25;;;9.95;;
3070;SDS011;1546;47.208;9.038;2022-12-18T14:19:45;17.35;;;8.55;;
3070;SDS011;1546;47.208;9.038;2022-12-18T14:22:15;20.63;;;10.25;;
3070;SDS011;1546;47.208;9.038;2022-12-18T14:24:44;19.98;;;9.48;;
3070;SDS011;1546;47.208;9.038;2022-12-18T14:27:13;18.92;;;9.75;;
3070;SDS011;1546;47.208;9.038;2022-12-18T14:29:48;18.75;;;10.27;;
3070;SDS011;1546;47.208;9.038;2022-12-18T14:32:15;21.42;;;10.73;;
3070;SDS011;1546;47.208;9.038;2022-12-18T14:34:46;23.08;;;10.15;;
3070;SDS011;1546;47.208;9.038;2022-12-18T14:37:14;19.85;;;11.38;;
3070;SDS011;1546;47.208;9.038;2022-12-18T14:39:51;19.50;;;10.00;;
3070;SDS011;1546;47.208;9.038;2022-12-18T14:42:19;21.23;;;8.73;;
3070;SDS011;1546;47.208;9.038;2022-12-18T14:44:46;23.33;;;9.95;;
3070;SDS011;1546;47.208;9.038;2022-12-18T14:47:13;19.77;;;9.15;;
3070;SDS011;1546;47.208;9.038;2022-12-18T14:49:41;21.10;;;9.32;;
3070;SDS011;1546;47.208;9.038;2022-12-18T14:52:16;19.80;;;10.25;;
3070;SDS011;1546;47.208;9.038;2022-12-18T14:54:48;22.40;;;9.45;;
3070;SDS011;1546;47.208;9.038;2022-12-18T14:57:18;22.05;;;10.07;;
3070;SDS011;1546;47.208;9.038;2022-12-18T14:59:48;23.25;;;10.95;;
3070;SDS011;1546;47.208;9.038;2022-12-18T15:02:17;18.33;;;9.07;;
3070;SDS011;1546;47.208;9.038;2022-12-18T15:04:53;20.67;;;9.95;;
3070;SDS011;1546;47.208;9.038;2022-12-18T15:07:38;20.73;;;9.40;;
3070;SDS011;1546;47.208;9.038;2022-12-18T15:10:09;23.38;;;10.05;;
3070;SDS011;1546;47.208;9.038;2022-12-18T15:12:40;22.83;;;10.15;;
3070;SDS011;1546;47.208;9.038;2022-12-18T15:18:11;18.08;;;9.98;;
3070;SDS011;1546;47.208;9.038;2022-12-18T15:20:42;18.45;;;9.55;;
3070;SDS011;1546;47.208;9.038;2022-12-18T15:23:16;22.05;;;9.40;;
3070;SDS011;1546;47.208;9.038;2022-12-18T15:25:44;25.85;;;12.68;;
3070;SDS011;1546;47.208;9.038;2022-12-18T15:28:18;24.25;;;11.32;;
3070;SDS011;1546;47.208;9.038;2022-12-18T15:30:58;24.08;;;11.75;;
3070;SDS011;1546;47.208;9.038;2022-12-18T15:33:30;22.38;;;9.85;;